createdAt,value
2019-01-18T00:00:15.762Z,23.00
2019-01-18T00:02:44.210Z,25.57
2019-01-18T00:05:12.904Z,22.50
2019-01-18T00:07:41.356Z,22.60
2019-01-18T00:10:10.469Z,22.30
2019-01-18T00:12:38.905Z,28.77
2019-01-18T00:15:09.661Z,22.97
2019-01-18T00:17:38.166Z,23.07
2019-01-18T00:20:09.874Z,25.77
2019-01-18T00:22:38.342Z,24.97
2019-01-18T00:25:08.532Z,27.57
2019-01-18T00:27:36.980Z,28.20
2019-01-18T00:30:08.817Z,23.10
2019-01-18T00:32:37.339Z,24.23
2019-01-18T00:35:06.463Z,26.03
2019-01-18T00:37:34.904Z,23.87
2019-01-18T00:40:04.529Z,22.77
2019-01-18T00:42:33.008Z,24.97
2019-01-18T00:45:01.447Z,22.07
2019-01-18T00:47:29.995Z,24.20
2019-01-18T00:49:58.520Z,26.60
2019-01-18T00:52:27.273Z,22.90
2019-01-18T00:54:55.724Z,24.43
2019-01-18T00:57:24.290Z,29.33
2019-01-18T00:59:52.823Z,25.60
2019-01-18T01:02:21.295Z,27.37
2019-01-18T01:04:49.909Z,24.60
2019-01-18T01:07:18.439Z,29.97
2019-01-18T01:09:46.886Z,21.07
2019-01-18T01:12:15.832Z,25.80
2019-01-18T01:14:44.277Z,22.93
2019-01-18T01:17:12.754Z,27.30
2019-01-18T01:19:41.196Z,20.97
2019-01-18T01:22:09.733Z,23.37
2019-01-18T01:24:38.253Z,26.97
2019-01-18T01:27:06.883Z,27.23
2019-01-18T01:29:35.414Z,31.00
2019-01-18T01:32:04.021Z,28.80
2019-01-18T01:34:32.541Z,32.90
2019-01-18T01:37:01.040Z,31.13
2019-01-18T01:39:29.566Z,26.77
2019-01-18T01:41:58.031Z,32.13
2019-01-18T01:44:26.593Z,33.40
2019-01-18T01:46:55.099Z,37.07
2019-01-18T01:49:23.570Z,33.57
2019-01-18T01:51:52.313Z,30.97
2019-01-18T01:54:20.769Z,29.67
2019-01-18T01:56:49.220Z,25.03
2019-01-18T01:59:17.677Z,28.97
2019-01-18T02:01:46.119Z,26.57
2019-01-18T02:04:14.773Z,27.87
2019-01-18T02:06:43.220Z,30.57
2019-01-18T02:09:11.680Z,31.70
2019-01-18T02:11:40.228Z,32.10
2019-01-18T02:14:08.688Z,26.43
2019-01-18T02:16:37.236Z,33.77
2019-01-18T02:19:05.770Z,32.67
2019-01-18T02:21:34.213Z,28.70
2019-01-18T02:24:02.673Z,33.57
2019-01-18T02:26:31.135Z,27.20
2019-01-18T02:28:59.695Z,27.70
2019-01-18T02:31:28.152Z,24.13
2019-01-18T02:33:56.667Z,24.80
2019-01-18T02:36:25.102Z,22.73
2019-01-18T02:38:53.564Z,26.33
2019-01-18T02:41:21.999Z,24.57
2019-01-18T02:43:50.470Z,27.87
2019-01-18T02:46:19.060Z,25.77
2019-01-18T02:48:47.514Z,29.77
2019-01-18T02:51:15.947Z,28.90
2019-01-18T02:53:44.477Z,29.07
2019-01-18T02:56:12.925Z,29.20
2019-01-18T02:58:41.380Z,29.73
2019-01-18T03:01:09.820Z,35.60
2019-01-18T03:03:38.279Z,32.70
2019-01-18T03:06:06.832Z,29.93
2019-01-18T03:08:35.296Z,24.30
2019-01-18T03:11:03.805Z,31.97
2019-01-18T03:13:32.284Z,31.95
2019-01-18T03:16:00.737Z,26.02
2019-01-18T03:18:29.201Z,37.80
2019-01-18T03:20:57.662Z,32.15
2019-01-18T03:23:26.208Z,35.57
2019-01-18T03:25:54.661Z,32.60
2019-01-18T03:28:23.136Z,35.07
2019-01-18T03:30:51.660Z,30.92
2019-01-18T03:33:20.104Z,34.57
2019-01-18T03:35:48.584Z,35.45
2019-01-18T03:38:17.034Z,33.00
2019-01-18T03:40:45.487Z,38.30
2019-01-18T03:43:13.940Z,35.50
2019-01-18T03:45:42.417Z,38.67
2019-01-18T03:48:10.948Z,30.03
2019-01-18T03:50:39.476Z,36.03
2019-01-18T03:53:07.932Z,31.40
2019-01-18T03:55:36.406Z,31.93
2019-01-18T03:58:05.197Z,40.28
2019-01-18T04:00:33.738Z,32.60
2019-01-18T04:03:02.255Z,36.13
2019-01-18T04:05:30.749Z,40.03
2019-01-18T04:07:59.329Z,42.03
2019-01-18T04:10:27.804Z,36.08
2019-01-18T04:12:56.314Z,28.87
2019-01-18T04:15:24.908Z,41.68
2019-01-18T04:17:53.380Z,37.33
2019-01-18T04:20:22.869Z,40.38
2019-01-18T04:22:52.030Z,41.10
2019-01-18T04:25:22.187Z,43.92
2019-01-18T04:27:50.664Z,39.80
2019-01-18T04:30:23.683Z,47.40
2019-01-18T04:32:52.216Z,39.55
2019-01-18T04:35:20.813Z,33.83
2019-01-18T04:37:49.353Z,46.33
2019-01-18T04:40:20.340Z,46.68
2019-01-18T04:42:48.875Z,48.70
2019-01-18T04:45:17.538Z,47.93
2019-01-18T04:47:46.016Z,53.98
2019-01-18T04:50:16.500Z,42.33
2019-01-18T04:52:45.109Z,56.13
2019-01-18T04:55:13.892Z,47.83
2019-01-18T04:57:42.449Z,52.53
2019-01-18T05:00:22.439Z,58.23
2019-01-18T05:02:51.220Z,49.35
2019-01-18T05:05:19.731Z,49.10
2019-01-18T05:07:48.272Z,46.63
2019-01-18T05:10:24.276Z,48.83
2019-01-18T05:12:52.743Z,50.88
2019-01-18T05:15:26.659Z,54.95
2019-01-18T05:17:55.194Z,47.85
2019-01-18T05:20:23.744Z,47.25
2019-01-18T05:22:52.264Z,45.35
2019-01-18T05:25:20.735Z,49.13
2019-01-18T05:27:49.185Z,52.35
2019-01-18T05:30:20.272Z,42.33
2019-01-18T05:32:48.897Z,42.80
2019-01-18T05:35:17.696Z,46.60
2019-01-18T05:37:46.329Z,49.50
2019-01-18T05:40:17.872Z,45.92
2019-01-18T05:42:46.562Z,52.95
2019-01-18T05:45:17.847Z,49.63
2019-01-18T05:47:46.444Z,51.53
2019-01-18T05:50:26.013Z,52.53
2019-01-18T05:52:54.667Z,55.78
2019-01-18T05:55:23.274Z,56.58
2019-01-18T05:57:51.747Z,63.75
2019-01-18T06:00:33.596Z,56.08
2019-01-18T06:03:02.724Z,66.57
2019-01-18T06:05:32.507Z,58.23
2019-01-18T06:08:05.709Z,61.40
2019-01-18T06:10:34.208Z,68.15
2019-01-18T06:13:02.663Z,78.17
2019-01-18T06:15:31.167Z,60.65
2019-01-18T06:17:59.709Z,67.00
2019-01-18T06:20:28.301Z,66.20
2019-01-18T06:22:57.105Z,61.60
2019-01-18T06:25:25.571Z,70.25
2019-01-18T06:27:54.110Z,61.10
2019-01-18T06:30:22.793Z,59.00
2019-01-18T06:32:51.292Z,63.02
2019-01-18T06:35:19.922Z,59.45
2019-01-18T06:37:48.537Z,60.10
2019-01-18T06:40:22.141Z,59.63
2019-01-18T06:42:50.677Z,62.95
2019-01-18T06:45:24.777Z,56.48
2019-01-18T06:47:53.323Z,55.63
2019-01-18T06:50:21.852Z,60.55
2019-01-18T06:52:50.667Z,51.23
2019-01-18T06:55:19.188Z,67.35
2019-01-18T06:57:47.828Z,62.05
2019-01-18T07:00:25.011Z,56.65
2019-01-18T07:02:53.485Z,56.77
2019-01-18T07:05:21.935Z,57.93
2019-01-18T07:07:50.412Z,60.25
2019-01-18T07:10:21.229Z,64.50
2019-01-18T07:12:49.909Z,70.35
2019-01-18T07:15:19.978Z,59.90
2019-01-18T07:17:48.492Z,63.15
2019-01-18T07:20:18.905Z,55.43
2019-01-18T07:22:47.496Z,58.50
2019-01-18T07:25:21.919Z,71.82
2019-01-18T07:27:50.439Z,61.40
2019-01-18T07:30:30.577Z,69.22
2019-01-18T07:32:59.096Z,71.20
2019-01-18T07:35:27.635Z,80.72
2019-01-18T07:37:56.519Z,68.20
2019-01-18T07:40:26.166Z,67.40
2019-01-18T07:42:54.919Z,61.33
2019-01-18T07:45:26.111Z,59.98
2019-01-18T07:47:54.622Z,66.17
2019-01-18T07:50:23.430Z,63.80
2019-01-18T07:52:51.961Z,59.15
2019-01-18T07:55:20.508Z,82.12
2019-01-18T07:57:49.094Z,62.75
2019-01-18T08:00:23.432Z,67.55
2019-01-18T08:02:51.959Z,69.53
2019-01-18T08:05:21.481Z,74.47
2019-01-18T08:07:50.000Z,67.12
2019-01-18T08:10:20.608Z,66.53
2019-01-18T08:12:49.369Z,57.10
2019-01-18T08:15:25.816Z,59.42
2019-01-18T08:17:54.435Z,67.78
2019-01-18T08:20:24.758Z,66.57
2019-01-18T08:22:58.316Z,57.13
2019-01-18T08:25:24.068Z,55.48
2019-01-18T08:27:52.856Z,61.90
2019-01-18T08:30:26.760Z,65.03
2019-01-18T08:32:55.450Z,62.20
2019-01-18T08:35:25.156Z,60.03
2019-01-18T08:37:53.667Z,56.07
2019-01-18T08:40:24.791Z,58.47
2019-01-18T08:42:53.305Z,61.77
2019-01-18T08:45:33.671Z,59.20
2019-01-18T08:48:02.183Z,55.80
2019-01-18T08:50:30.779Z,65.07
2019-01-18T08:52:59.396Z,69.77
2019-01-18T08:55:27.864Z,56.90
2019-01-18T08:57:56.334Z,52.00
2019-01-18T09:00:27.611Z,48.37
2019-01-18T09:02:56.050Z,54.07
2019-01-18T09:05:26.357Z,52.60
2019-01-18T09:07:55.328Z,57.00
2019-01-18T09:10:29.730Z,45.50
2019-01-18T09:12:58.363Z,46.60
2019-01-18T09:15:26.910Z,47.33
2019-01-18T09:17:55.479Z,50.10
2019-01-18T09:20:26.086Z,55.10
2019-01-18T09:22:54.659Z,48.97
2019-01-18T09:25:23.373Z,48.73
2019-01-18T09:27:51.885Z,41.20
2019-01-18T09:30:26.411Z,36.10
2019-01-18T09:32:55.213Z,32.40
2019-01-18T09:35:25.271Z,31.60
2019-01-18T09:37:54.664Z,38.67
2019-01-18T09:40:26.020Z,40.23
2019-01-18T09:42:54.547Z,36.33
2019-01-18T09:45:22.993Z,31.87
2019-01-18T09:47:51.457Z,27.60
2019-01-18T09:50:28.513Z,31.83
2019-01-18T09:52:57.607Z,30.53
2019-01-18T09:55:26.120Z,42.80
2019-01-18T09:57:54.659Z,40.00
2019-01-18T10:00:34.377Z,35.80
2019-01-18T10:03:02.976Z,26.87
2019-01-18T10:05:31.868Z,43.53
2019-01-18T10:08:00.459Z,48.23
2019-01-18T10:10:28.968Z,28.07
2019-01-18T10:12:57.507Z,36.57
2019-01-18T10:15:29.016Z,34.33
2019-01-18T10:18:00.753Z,42.20
2019-01-18T10:20:27.780Z,34.47
2019-01-18T10:22:56.408Z,35.83
2019-01-18T10:25:25.024Z,39.20
2019-01-18T10:27:53.545Z,29.03
2019-01-18T10:30:24.364Z,28.30
2019-01-18T10:32:52.806Z,26.07
2019-01-18T10:35:22.000Z,33.33
2019-01-18T10:37:50.519Z,28.97
2019-01-18T10:40:19.151Z,22.83
2019-01-18T10:42:49.536Z,24.53
2019-01-18T10:45:19.232Z,27.10
2019-01-18T10:47:48.616Z,24.17
2019-01-18T10:50:25.645Z,22.93
2019-01-18T10:52:54.162Z,26.37
2019-01-18T10:55:22.783Z,26.17
2019-01-18T10:57:51.228Z,23.73
2019-01-18T11:00:25.399Z,19.83
2019-01-18T11:02:53.988Z,20.90
2019-01-18T11:05:23.084Z,22.13
2019-01-18T11:07:51.698Z,20.73
2019-01-18T11:10:20.364Z,15.47
2019-01-18T11:12:48.944Z,16.67
2019-01-18T11:15:23.109Z,19.10
2019-01-18T11:17:51.615Z,13.63
2019-01-18T11:20:26.036Z,16.33
2019-01-18T11:22:56.112Z,15.80
2019-01-18T11:25:24.712Z,15.63
2019-01-18T11:27:53.539Z,14.60
2019-01-18T11:30:22.049Z,21.83
2019-01-18T11:32:50.786Z,12.00
2019-01-18T11:35:19.369Z,15.07
2019-01-18T11:37:48.124Z,13.90
2019-01-18T11:40:19.204Z,17.90
2019-01-18T11:42:47.789Z,17.17
2019-01-18T11:45:16.755Z,15.03
2019-01-18T11:47:45.553Z,17.33
2019-01-18T11:50:16.459Z,18.20
2019-01-18T11:52:45.229Z,19.33
2019-01-18T11:55:13.820Z,18.37
2019-01-18T11:57:42.347Z,23.10
2019-01-18T12:00:25.040Z,22.17
2019-01-18T12:02:53.650Z,23.40
2019-01-18T12:05:22.237Z,22.87
2019-01-18T12:07:50.765Z,23.63
2019-01-18T12:10:21.659Z,21.33
2019-01-18T12:12:50.165Z,21.17
2019-01-18T12:15:18.818Z,51.00
2019-01-18T12:17:47.466Z,20.80
2019-01-18T12:20:19.121Z,24.03
2019-01-18T12:22:47.724Z,22.73
2019-01-18T12:25:16.244Z,27.77
2019-01-18T12:27:44.751Z,18.97
2019-01-18T12:30:16.328Z,16.83
2019-01-18T12:32:44.772Z,28.53
2019-01-18T12:35:13.392Z,18.53
2019-01-18T12:37:41.997Z,46.93
2019-01-18T12:40:10.599Z,33.70
2019-01-18T12:42:39.115Z,32.87
2019-01-18T12:45:16.182Z,45.50
2019-01-18T12:47:44.701Z,40.13
2019-01-18T12:50:28.153Z,34.60
2019-01-18T12:52:56.836Z,23.73
2019-01-18T12:55:25.294Z,28.10
2019-01-18T12:57:53.804Z,25.10
2019-01-18T13:00:24.827Z,24.07
2019-01-18T13:02:53.696Z,21.63
2019-01-18T13:05:34.699Z,18.90
2019-01-18T13:08:03.140Z,19.47
2019-01-18T13:10:31.600Z,25.00
2019-01-18T13:13:00.205Z,18.43
2019-01-18T13:15:31.891Z,22.40
2019-01-18T13:18:00.331Z,17.70
2019-01-18T13:20:28.860Z,28.80
2019-01-18T13:22:57.297Z,90.17
2019-01-18T13:25:25.835Z,28.03
2019-01-18T13:27:54.414Z,49.43
2019-01-18T13:30:23.117Z,28.37
2019-01-18T13:32:51.724Z,59.13
2019-01-18T13:35:20.160Z,61.17
2019-01-18T13:37:48.702Z,48.90
2019-01-18T13:40:19.508Z,25.87
2019-01-18T13:42:48.117Z,24.00
2019-01-18T13:45:17.162Z,53.53
2019-01-18T13:47:46.909Z,28.63
2019-01-18T13:50:21.672Z,37.07
2019-01-18T13:52:50.149Z,31.40
2019-01-18T13:55:29.987Z,22.87
2019-01-18T13:57:58.520Z,24.47
2019-01-18T14:00:26.975Z,25.20
2019-01-18T14:02:55.495Z,23.30
2019-01-18T14:05:24.016Z,26.60
2019-01-18T14:07:53.540Z,22.40
2019-01-18T14:10:30.347Z,19.33
2019-01-18T14:12:58.807Z,25.27
2019-01-18T14:15:27.430Z,23.67
2019-01-18T14:17:55.960Z,24.17
2019-01-18T14:20:26.524Z,23.70
2019-01-18T14:22:55.324Z,26.83
2019-01-18T14:25:24.059Z,25.17
2019-01-18T14:27:53.004Z,25.43
2019-01-18T14:30:23.733Z,22.20
2019-01-18T14:32:55.568Z,27.60
2019-01-18T14:35:23.104Z,28.57
2019-01-18T14:37:52.119Z,24.53
2019-01-18T14:40:20.716Z,32.03
2019-01-18T14:42:51.183Z,37.60
2019-01-18T14:45:25.232Z,40.47
2019-01-18T14:47:53.694Z,39.10
2019-01-18T14:50:22.308Z,41.97
2019-01-18T14:52:50.972Z,27.87
2019-01-18T14:55:19.871Z,27.40
2019-01-18T14:57:48.387Z,28.53
2019-01-18T15:00:29.339Z,27.03
2019-01-18T15:03:02.259Z,26.77
2019-01-18T15:05:27.992Z,26.37
2019-01-18T15:07:56.521Z,27.73
2019-01-18T15:10:25.811Z,29.03
2019-01-18T15:13:00.245Z,30.83
2019-01-18T15:15:28.767Z,31.40
2019-01-18T15:17:57.212Z,29.10
2019-01-18T15:20:27.945Z,38.17
2019-01-18T15:22:56.719Z,31.47
2019-01-18T15:25:25.249Z,29.10
2019-01-18T15:27:53.700Z,33.87
2019-01-18T15:30:27.551Z,26.77
2019-01-18T15:32:56.144Z,32.97
2019-01-18T15:35:27.144Z,31.27
2019-01-18T15:37:55.583Z,29.50
2019-01-18T15:40:29.176Z,30.10
2019-01-18T15:42:59.284Z,30.53
2019-01-18T15:45:27.819Z,34.87
2019-01-18T15:47:56.360Z,27.70
2019-01-18T15:50:27.992Z,32.90
2019-01-18T15:52:56.741Z,29.87
2019-01-18T15:55:25.341Z,32.67
2019-01-18T15:57:53.866Z,36.67
2019-01-18T16:00:27.839Z,34.90
2019-01-18T16:02:56.532Z,34.37
2019-01-18T16:05:25.120Z,33.60
2019-01-18T16:07:53.725Z,36.73
2019-01-18T16:10:22.447Z,38.03
2019-01-18T16:12:51.212Z,37.33
2019-01-18T16:15:22.943Z,43.63
2019-01-18T16:17:51.428Z,43.87
2019-01-18T16:20:22.107Z,53.73
2019-01-18T16:22:51.115Z,44.50
2019-01-18T16:25:25.332Z,45.57
2019-01-18T16:27:53.869Z,63.00
2019-01-18T16:30:24.062Z,52.50
2019-01-18T16:32:53.081Z,59.07
2019-01-18T16:35:21.682Z,60.17
2019-01-18T16:37:50.719Z,51.67
2019-01-18T16:40:25.124Z,44.77
2019-01-18T16:42:56.869Z,44.13
2019-01-18T16:45:25.475Z,39.30
2019-01-18T16:47:54.029Z,38.17
2019-01-18T16:50:22.612Z,37.93
2019-01-18T16:52:51.151Z,35.48
2019-01-18T16:55:19.691Z,32.77
2019-01-18T16:57:48.305Z,35.43
2019-01-18T17:00:20.063Z,35.57
2019-01-18T17:02:48.536Z,35.48
2019-01-18T17:05:17.413Z,46.73
2019-01-18T17:07:46.112Z,37.93
2019-01-18T17:10:18.864Z,34.88
2019-01-18T17:12:47.643Z,32.65
2019-01-18T17:15:16.571Z,28.23
2019-01-18T17:17:45.386Z,27.82
2019-01-18T17:20:25.710Z,30.93
2019-01-18T17:22:54.330Z,29.00
2019-01-18T17:25:22.852Z,28.77
2019-01-18T17:27:51.439Z,23.77
2019-01-18T17:30:21.599Z,29.82
2019-01-18T17:32:51.382Z,32.53
2019-01-18T17:35:31.787Z,27.00
2019-01-18T17:38:03.324Z,32.63
2019-01-18T17:40:47.001Z,27.93
2019-01-18T17:43:33.493Z,28.90
2019-01-18T17:46:13.693Z,26.85
2019-01-18T17:48:47.789Z,28.57
2019-01-18T17:51:43.452Z,27.83
2019-01-18T17:54:17.657Z,30.30
2019-01-18T17:57:08.445Z,27.77
2019-01-18T17:59:51.334Z,31.20
2019-01-18T18:02:28.723Z,27.07
2019-01-18T18:05:03.836Z,31.80
2019-01-18T18:07:57.508Z,28.92
2019-01-18T18:10:34.997Z,24.35
2019-01-18T18:13:25.431Z,24.20
2019-01-18T18:16:06.013Z,22.33
2019-01-18T18:18:49.532Z,23.15
2019-01-18T18:21:37.438Z,20.55
2019-01-18T18:24:20.874Z,22.60
2019-01-18T18:27:09.193Z,19.90
2019-01-18T18:29:49.236Z,18.70
2019-01-18T18:32:42.011Z,20.15
2019-01-18T18:35:31.572Z,20.02
2019-01-18T18:38:09.561Z,17.60
2019-01-18T18:40:50.094Z,21.45
2019-01-18T18:43:39.658Z,17.65
2019-01-18T18:46:30.717Z,20.25
2019-01-18T18:49:11.053Z,19.55
2019-01-18T18:51:48.199Z,17.87
2019-01-18T18:54:37.922Z,20.40
2019-01-18T18:57:30.982Z,14.65
2019-01-18T19:00:20.315Z,18.40
2019-01-18T19:03:09.745Z,13.62
2019-01-18T19:05:57.507Z,16.65
2019-01-18T19:08:38.253Z,13.75
2019-01-18T19:11:09.843Z,17.73
2019-01-18T19:13:53.372Z,17.52
2019-01-18T19:16:28.046Z,16.62
2019-01-18T19:19:11.784Z,19.45
2019-01-18T19:21:45.978Z,19.90
2019-01-18T19:24:23.440Z,20.97
2019-01-18T19:27:00.634Z,22.20
2019-01-18T19:29:34.887Z,19.80
2019-01-18T19:32:09.095Z,22.17
2019-01-18T19:34:49.663Z,25.85
2019-01-18T19:37:27.228Z,19.55
2019-01-18T19:39:58.780Z,21.82
2019-01-18T19:42:39.143Z,21.27
2019-01-18T19:45:19.472Z,22.67
2019-01-18T19:47:57.176Z,18.95
2019-01-18T19:50:34.807Z,22.93
2019-01-18T19:53:21.315Z,21.07
2019-01-18T19:56:11.894Z,19.73
2019-01-18T19:59:15.202Z,20.88
2019-01-18T20:01:46.776Z,23.18
2019-01-18T20:04:30.037Z,20.20
2019-01-18T20:07:10.748Z,26.65
2019-01-18T20:09:47.803Z,23.40
2019-01-18T20:12:45.200Z,21.82
2019-01-18T20:15:34.705Z,21.52
2019-01-18T20:18:17.926Z,20.80
2019-01-18T20:20:55.415Z,19.15
2019-01-18T20:23:43.758Z,15.78
2019-01-18T20:26:32.667Z,19.30
2019-01-18T20:29:20.308Z,17.67
2019-01-18T20:31:58.185Z,17.07
2019-01-18T20:34:32.692Z,21.05
2019-01-18T20:37:07.008Z,19.80
2019-01-18T20:39:56.684Z,14.18
2019-01-18T20:42:46.176Z,17.17
2019-01-18T20:45:17.775Z,17.32
2019-01-18T20:48:01.419Z,16.17
2019-01-18T20:50:49.557Z,14.90
2019-01-18T20:53:24.157Z,14.85
2019-01-18T20:56:19.452Z,17.92
2019-01-18T20:58:54.739Z,17.52
2019-01-18T21:01:48.316Z,15.65
2019-01-18T21:04:33.313Z,14.87
2019-01-18T21:07:27.248Z,15.60
2019-01-18T21:10:16.921Z,23.02
2019-01-18T21:13:00.160Z,15.15
2019-01-18T21:15:50.886Z,15.35
2019-01-18T21:18:34.275Z,18.37
2019-01-18T21:21:11.517Z,17.73
2019-01-18T21:24:00.085Z,15.65
2019-01-18T21:26:37.489Z,15.78
2019-01-18T21:29:41.141Z,17.37
2019-01-18T21:32:18.791Z,17.15
2019-01-18T21:35:14.759Z,21.17
2019-01-18T21:37:51.952Z,13.15
2019-01-18T21:40:38.404Z,14.35
2019-01-18T21:43:24.879Z,14.20
2019-01-18T21:46:05.062Z,18.25
2019-01-18T21:48:57.763Z,14.80
2019-01-18T21:51:50.371Z,15.05
2019-01-18T21:54:30.404Z,13.53
2019-01-18T21:57:18.090Z,18.82
2019-01-18T22:00:13.768Z,13.25
2019-01-18T22:03:03.151Z,17.42
2019-01-18T22:06:02.204Z,14.33
2019-01-18T22:08:48.605Z,11.85
2019-01-18T22:11:25.760Z,17.73
2019-01-18T22:14:03.168Z,13.18
2019-01-18T22:17:09.774Z,13.72
2019-01-18T22:19:59.508Z,10.75
2019-01-18T22:22:59.745Z,9.63
2019-01-18T22:25:40.085Z,13.25
2019-01-18T22:28:32.681Z,12.45
2019-01-18T22:31:04.235Z,13.38
2019-01-18T22:33:41.710Z,12.93
2019-01-18T22:36:25.141Z,9.78
2019-01-18T22:39:08.489Z,12.05
2019-01-18T22:41:42.975Z,15.48
2019-01-18T22:44:39.774Z,15.80
2019-01-18T22:47:30.700Z,10.82
2019-01-18T22:50:05.103Z,13.65
2019-01-18T22:52:42.692Z,13.22
2019-01-18T22:55:34.685Z,13.85
2019-01-18T22:58:18.401Z,21.07
2019-01-18T23:01:06.254Z,16.42
2019-01-18T23:04:12.764Z,15.68
2019-01-18T23:06:44.315Z,14.10
2019-01-18T23:09:32.476Z,16.30
2019-01-18T23:12:12.875Z,13.83
2019-01-18T23:14:44.397Z,12.03
2019-01-18T23:17:27.982Z,13.18
2019-01-18T23:20:17.457Z,12.15
2019-01-18T23:22:49.012Z,12.43
2019-01-18T23:25:23.755Z,12.40
2019-01-18T23:28:03.941Z,16.10
2019-01-18T23:30:40.994Z,12.58
2019-01-18T23:33:34.915Z,14.07
2019-01-18T23:36:09.015Z,10.20
2019-01-18T23:38:46.256Z,19.62
2019-01-18T23:41:23.757Z,11.70
2019-01-18T23:44:01.179Z,11.15
2019-01-18T23:46:36.876Z,10.20
2019-01-18T23:49:08.483Z,10.72
2019-01-18T23:51:45.471Z,12.53
2019-01-18T23:54:19.678Z,13.75
2019-01-18T23:56:59.765Z,15.48
2019-01-18T23:59:33.865Z,14.95
